Latest Weather Observations for Maria Island

IDT60801

Issued at 6:05 pm EST Thursday 2 October 2014 (issued every 30 minutes, with the page automatically refreshed every 10 minutes)

About weather observations | Map of weather stations | Latest weather observations for TAS | Other Formats
Station Details ID: 092124 Name: MARIA ISLAND (POINT LESUEUR) Lat: -42.66 Lon: 148.02 Height: 28.0 m
Data from the previous 72 hours. | See also: Recent months at Maria Island
Date/Time
EST
Temp
°C
App
Temp
°C
Dew
Point
Rel
Hum
%
Delta-T
°C
Wind Press
QNH
hPa
Press
MSL
hPa
Rain
since 9 am
mm
Dir
 
Spd
km/h
Gust
km/h
Spd
kts
Gust
kts
02/06:00pm 11.2 2.1 5.9 70 2.5 SSW 43 48 23 26 1015.3 1015.3 0.0
02/05:30pm 11.3 1.4 6.4 72 2.3 SSW 48 59 26 32 1014.4 1014.4 0.0
02/05:00pm 11.9 1.6 6.4 69 2.6 SSW 50 57 27 31 1013.9 1013.9 0.0
02/04:30pm 13.3 2.7 5.2 58 3.8 SSW 50 59 27 32 1013.4 1013.4 0.0
02/04:00pm 13.6 3.7 5.0 56 4.0 SSW 46 54 25 29 1013.1 1013.1 0.0
02/03:30pm 13.7 5.4 6.3 61 3.5 S 39 54 21 29 1013.0 1013.0 0.0
02/03:00pm 13.5 6.2 7.1 65 3.1 S 35 43 19 23 1012.9 1012.9 0.0
02/02:30pm 13.5 5.2 7.7 68 2.9 S 41 46 22 25 1012.5 1012.5 0.0
02/02:00pm 13.7 6.0 8.5 71 2.6 S 39 44 21 24 1012.2 1012.2 0.0
02/01:30pm 14.2 7.1 9.4 73 2.5 S 37 41 20 22 1011.8 1011.8 0.0
02/01:00pm 16.0 7.5 5.0 48 5.2 SSW 39 48 21 26 1011.5 1011.5 0.0
02/12:38pm 17.2 9.4 4.9 44 5.9 WSW 35 61 19 33 1011.5 1011.5 0.0
02/12:36pm 17.0 9.7 4.3 43 6.0 WSW 32 48 17 26 1011.6 1011.6 0.0
02/12:30pm 16.4 11.2 5.4 48 5.3 WSW 22 30 12 16 1011.8 1011.8 0.0
02/12:00pm 15.9 9.0 6.3 53 4.7 SW 32 43 17 23 1011.7 1011.7 0.0
02/11:30am 16.9 11.5 6.4 50 5.2 SW 24 35 13 19 1011.7 1011.7 0.0
02/11:00am 16.4 12.0 6.5 52 4.9 WSW 19 28 10 15 1011.6 1011.6 0.0
02/10:30am 16.3 11.5 7.3 55 4.5 WSW 22 28 12 15 1011.6 1011.6 0.0
02/10:00am 16.1 9.0 5.7 50 5.0 WSW 32 44 17 24 1011.2 1011.2 0.0
02/09:30am 15.3 7.0 6.3 55 4.4 W 39 50 21 27 1010.8 1010.8 0.0
02/09:00am 14.8 7.0 6.6 58 4.0 W 37 52 20 28 1010.8 1010.8 0.0
02/08:30am 14.3 6.8 6.2 58 3.9 W 35 46 19 25 1010.9 1010.9 0.0
02/08:19am 14.1 6.9 6.0 58 3.9 W 33 52 18 28 1010.9 1010.9 0.0
02/08:00am 13.7 4.7 6.3 61 3.5 W 43 57 23 31 1010.4 1010.4 0.0
02/07:30am 13.4 6.2 5.1 57 3.9 W 32 41 17 22 1010.6 1010.6 0.0
02/07:00am 13.4 7.1 5.8 60 3.6 W 28 41 15 22 1010.8 1010.8 0.0
02/06:30am 13.1 8.5 5.5 60 3.6 W 19 35 10 19 1010.7 1010.7 0.0
02/06:00am 12.3 8.5 5.9 65 3.0 WNW 15 20 8 11 1010.3 1010.3 0.0
02/05:30am 12.9 6.6 5.6 61 3.4 W 28 41 15 22 1009.8 1009.8 0.0
02/05:00am 12.8 7.1 5.0 59 3.6 W 24 33 13 18 1009.7 1009.7 0.0
02/04:30am 12.3 7.0 5.2 62 3.3 W 22 30 12 16 1009.6 1009.6 0.0
02/04:00am 12.4 7.2 5.6 63 3.2 WNW 22 28 12 15 1009.5 1009.5 0.0
02/03:30am 12.4 7.6 5.8 64 3.1 W 20 26 11 14 1009.5 1009.5 0.0
02/03:00am 12.6 7.0 5.5 62 3.3 WNW 24 33 13 18 1009.6 1009.6 0.0
02/02:30am 12.7 6.4 5.6 62 3.3 WNW 28 39 15 21 1009.5 1009.5 0.0
02/02:00am 12.6 7.2 6.4 66 3.0 WNW 24 35 13 19 1009.6 1009.6 0.0
02/01:30am 12.5 7.0 6.1 65 3.0 WNW 24 33 13 18 1009.8 1009.8 0.0
02/01:00am 12.3 8.8 5.5 63 3.2 NW 13 19 7 10 1010.3 1010.3 0.0
02/12:30am 12.9 8.6 5.3 60 3.5 WNW 17 26 9 14 1010.4 1010.4 0.0
02/12:00am 12.8 7.6 5.5 61 3.4 WNW 22 33 12 18 1010.7 1010.7 0.0
 
Date/Time
EST
Temp
°C
App
Temp
°C
Dew
Point
Rel
Hum
%
Delta-T
°C
Wind Press
QNH
hPa
Press
MSL
hPa
Rain
since 9 am
mm
Dir
 
Spd
km/h
Gust
km/h
Spd
kts
Gust
kts
01/11:30pm 12.6 7.8 5.5 62 3.3 WNW 20 37 11 20 1011.4 1011.4 0.0
01/11:00pm 11.9 7.7 5.5 65 3.0 NW 17 24 9 13 1011.7 1011.7 0.0
01/10:30pm 11.8 7.1 5.9 67 2.8 NW 20 33 11 18 1012.0 1012.0 0.0
01/10:00pm 11.2 6.5 5.1 66 2.8 NW 19 24 10 13 1012.3 1012.3 0.0
01/09:30pm 11.1 5.8 5.2 67 2.7 N 22 32 12 17 1012.6 1012.6 0.0
01/09:00pm 10.9 5.9 4.8 66 2.8 NNW 20 30 11 16 1013.1 1013.1 0.0
01/08:30pm 11.0 5.6 4.5 64 2.9 NW 22 30 12 16 1013.4 1013.4 0.0
01/08:00pm 11.1 4.8 3.9 61 3.2 NW 26 32 14 17 1013.6 1013.6 0.0
01/07:30pm 11.4 6.4 3.4 58 3.5 NW 19 22 10 12 1014.0 1014.0 0.0
01/07:00pm 11.6 5.2 3.4 57 3.6 W 26 32 14 17 1014.2 1014.2 0.0
01/06:30pm 11.9 4.7 3.2 55 3.8 W 30 41 16 22 1014.2 1014.2 0.0
01/06:00pm 12.1 4.4 3.3 55 3.9 W 33 44 18 24 1014.0 1014.0 0.0
01/05:30pm 12.6 5.1 3.6 54 4.0 W 32 41 17 22 1014.0 1014.0 0.0
01/05:00pm 13.6 6.0 3.1 49 4.7 W 32 46 17 25 1013.9 1013.9 0.0
01/04:30pm 14.3 7.8 2.5 45 5.2 W 26 39 14 21 1013.4 1013.4 0.0
01/04:00pm 13.0 7.7 5.2 59 3.6 SSW 22 32 12 17 1013.4 1013.4 0.0
01/03:30pm 14.3 9.1 5.7 56 4.1 SSW 22 28 12 15 1013.2 1013.2 0.0
01/03:00pm 13.1 8.2 5.0 58 3.8 SSW 20 26 11 14 1013.3 1013.3 0.0
01/02:30pm 13.7 9.3 4.6 54 4.2 S 17 24 9 13 1013.3 1013.3 0.0
01/02:00pm 12.9 7.8 3.3 52 4.3 S 19 24 10 13 1013.4 1013.4 0.0
01/01:30pm 12.1 3.1 4.3 59 3.5 SSW 41 50 22 27 1013.0 1013.0 0.0
01/01:19pm 12.3 2.9 4.5 59 3.6 SSW 43 50 23 27 1013.0 1013.0 0.0
01/01:00pm 13.8 8.8 4.7 54 4.2 SSW 20 28 11 15 1013.2 1013.2 0.0
01/12:30pm 13.4 7.6 4.6 55 4.1 SSW 24 28 13 15 1013.4 1013.4 0.0
01/12:00pm 12.7 5.9 3.1 52 4.3 WSW 28 39 15 21 1013.3 1013.3 0.0
01/11:30am 13.2 5.9 2.4 48 4.7 WSW 30 44 16 24 1013.2 1013.2 0.0
01/11:00am 12.9 5.2 2.5 49 4.6 SW 32 43 17 23 1012.9 1012.9 0.0
01/10:32am 12.2 3.8 1.5 48 4.6 WSW 35 54 19 29 1012.7 1012.7 0.0
01/10:30am 12.2 4.3 2.1 50 4.4 WSW 33 46 18 25 1012.9 1012.9 0.0
01/10:00am 11.5 3.4 0.9 48 4.4 WSW 33 52 18 28 1012.9 1012.9 0.0
01/09:46am 11.2 4.2 1.7 52 4.0 WSW 28 46 15 25 1012.9 1012.9 0.0
01/09:30am 11.1 2.7 1.4 51 4.1 SW 35 46 19 25 1013.0 1013.0 0.0
01/09:19am 11.3 3.6 2.1 53 3.9 WSW 32 50 17 27 1012.9 1012.9 0.0
01/09:00am 11.0 3.6 1.8 53 3.9 WSW 30 44 16 24 1012.8 1012.8 0.6
01/08:30am 10.3 2.5 1.7 55 3.6 WSW 32 39 17 21 1012.4 1012.4 0.6
01/08:00am 9.9 1.6 2.0 58 3.3 WSW 35 48 19 26 1012.0 1012.0 0.6
01/07:30am 9.1 2.1 2.2 62 2.9 WSW 28 39 15 21 1011.6 1011.6 0.6
01/07:00am 8.0 1.1 2.5 68 2.3 WSW 28 35 15 19 1011.0 1011.0 0.6
01/06:30am 7.5 0.7 3.0 73 1.9 WSW 28 39 15 21 1010.4 1010.4 0.6
01/06:00am 6.5 -2.7 3.7 82 1.2 WSW 41 56 22 30 1009.8 1009.8 0.4
01/05:32am 7.8 -2.2 1.9 66 2.4 SW 44 70 24 38 1009.0 1009.0 0.2
01/05:30am 8.4 -0.6 2.6 67 2.4 WSW 39 57 21 31 1009.0 1009.0 0.2
01/05:24am 8.1 0.2 1.0 61 2.9 WSW 32 52 17 28 1008.6 1008.6 0.2
01/05:00am 7.6 0.9 1.7 66 2.4 W 26 37 14 20 1007.8 1007.8 0.2
01/04:30am 8.0 0.3 2.5 68 2.3 W 32 41 17 22 1007.5 1007.5 0.2
01/04:00am 7.8 -1.3 1.6 65 2.5 W 39 52 21 28 1006.3 1006.3 0.2
01/03:30am 8.0 -0.6 2.5 68 2.3 WSW 37 48 20 26 1006.0 1006.0 0.2
01/03:00am 8.1 -3.1 2.1 66 2.5 WSW 50 65 27 35 1005.1 1005.1 0.2
01/02:30am 7.5 -2.0 1.6 66 2.4 WSW 41 70 22 38 1005.1 1005.1 0.2
01/02:23am 8.1 -1.4 1.9 65 2.6 W 41 63 22 34 1005.0 1005.0 0.2
01/02:00am 7.8 -0.1 1.2 63 2.7 W 32 39 17 21 1004.9 1004.9 0.2
01/01:30am 7.8 0.3 1.4 64 2.6 W 30 39 16 21 1004.8 1004.8 0.2
01/01:00am 8.1 0.0 1.0 61 2.9 W 33 46 18 25 1004.3 1004.3 0.2
01/12:30am 8.3 -0.6 1.0 60 3.0 W 37 46 20 25 1003.7 1003.7 0.2
01/12:00am 8.3 0.8 1.5 62 2.8 WSW 30 39 16 21 1003.3 1003.3 0.2
 
Date/Time
EST
Temp
°C
App
Temp
°C
Dew
Point
Rel
Hum
%
Delta-T
°C
Wind Press
QNH
hPa
Press
MSL
hPa
Rain
since 9 am
mm
Dir
 
Spd
km/h
Gust
km/h
Spd
kts
Gust
kts
30/11:30pm 7.9 2.4 1.7 65 2.5 W 20 30 11 16 1002.8 1002.8 0.2
30/11:00pm 8.1 2.5 1.3 62 2.8 W 20 30 11 16 1002.7 1002.7 0.2
30/10:30pm 8.2 3.5 1.1 61 2.9 W 15 20 8 11 1002.4 1002.4 0.2
30/10:00pm 8.5 3.5 1.4 61 2.9 WSW 17 26 9 14 1001.6 1001.6 0.2
30/09:30pm 8.8 3.3 1.9 62 2.9 WSW 20 30 11 16 1000.8 1000.8 0.2
30/09:00pm 9.1 3.0 2.9 65 2.7 W 24 30 13 16 1000.1 1000.1 0.2
30/08:30pm 9.6 2.5 3.4 65 2.7 WSW 30 39 16 21 999.6 999.6 0.2
30/08:00pm 9.7 3.5 4.3 69 2.4 SW 26 32 14 17 998.4 998.5 0.2
30/07:30pm 9.7 0.2 3.7 66 2.6 SW 43 61 23 33 997.5 997.6 0.2
30/07:08pm 9.7 1.4 6.2 79 1.6 SW 39 61 21 33 996.9 996.9 0.2
30/07:00pm 10.3 2.6 7.0 80 1.6 SSW 37 44 20 24 996.8 996.8 0.2
30/06:52pm 10.5 2.8 7.2 80 1.6 SSW 37 43 20 23 996.2 996.2 0.2
30/06:30pm 10.5 3.6 6.5 76 1.9 W 32 44 17 24 995.3 995.3 0.2
30/06:20pm 10.4 2.9 6.4 76 1.9 W 35 54 19 29 995.3 995.3 0.2
30/06:12pm 10.7 1.6 5.9 72 2.2 W 43 54 23 29 995.5 995.5 0.2
30/06:04pm 11.9 5.0 7.4 74 2.2 SW 33 44 18 24 995.4 995.4 0.2
30/06:00pm 11.9 9.9 7.2 73 2.3 WSW 7 13 4 7 995.4 995.4 0.2
30/05:30pm 12.0 10.1 7.7 75 2.1 SW 7 13 4 7 995.0 995.0 0.2
30/05:00pm 11.9 10.0 7.4 74 2.2 WNW 7 13 4 7 994.1 994.1 0.2
30/04:30pm - - - - - WNW 9 13 5 7 993.8 993.8 0.2
30/04:00pm - - - - - N 6 13 3 7 993.0 993.0 0.2
30/03:30pm - - - - - S 9 19 5 10 993.6 993.6 0.2
30/03:05pm - - - - - SSW 33 35 18 19 994.0 994.0 0.2
30/03:00pm - - - - - WSW 39 52 21 28 994.0 994.0 0.2
30/02:38pm - - - - - WSW 44 52 24 28 993.0 993.0 0.0
30/02:35pm - - - - - WNW 43 56 23 30 992.8 992.8 0.0
30/02:30pm - - - - - NW 48 63 26 34 992.3 992.3 0.0
30/02:23pm - - - - - NNW 41 59 22 32 992.2 992.2 0.0
30/02:00pm - - - - - NNW 43 52 23 28 992.3 992.3 0.0
30/01:56pm - - - - - NNW 41 52 22 28 992.4 992.4 0.0
30/01:30pm - - - - - N 41 52 22 28 992.7 992.7 0.0
30/01:00pm - - - - - N 52 63 28 34 992.3 992.3 0.0
30/12:30pm - - - - - N 43 54 23 29 992.7 992.7 0.0
30/12:00pm - - - - - N 46 56 25 30 993.4 993.4 0.0
30/11:30am - - - - - N 52 67 28 36 993.8 993.8 0.0
30/11:00am - - - - - NNW 54 63 29 34 994.3 994.3 0.0
30/10:30am - - - - - N 44 59 24 32 995.0 995.0 0.0
30/10:00am - - - - - N 43 54 23 29 995.8 995.8 0.0
30/09:30am - - - - - N 50 65 27 35 996.0 996.0 0.0
30/09:13am - - - - - N 50 70 27 38 995.8 995.8 0.0
30/09:00am - - - - - N 46 56 25 30 996.8 996.8 0.0
30/08:31am - - - - - NNW 46 67 25 36 997.7 997.8 0.0
30/08:30am - - - - - NNW 46 59 25 32 998.0 998.1 0.0
30/08:00am - - - - - N 56 72 30 39 997.0 997.0 0.0
30/07:30am - - - - - N 61 76 33 41 996.6 996.6 0.0
30/07:13am - - - - - N 54 76 29 41 997.1 997.2 0.0
30/07:00am - - - - - N 48 59 26 32 997.8 997.9 0.0
30/06:30am - - - - - N 48 59 26 32 998.6 998.7 0.0
30/06:00am - - - - - N 43 57 23 31 999.0 999.1 0.0
30/05:30am - - - - - N 43 52 23 28 999.5 999.5 0.0
30/05:00am - - - - - N 39 46 21 25 999.8 999.8 0.0
30/04:30am - - - - - N 37 46 20 25 999.9 999.9 0.0
30/04:00am - - - - - N 37 48 20 26 999.7 999.7 0.0
30/03:30am - - - - - N 39 46 21 25 1000.3 1000.3 0.0
30/03:00am - - - - - N 32 41 17 22 1000.7 1000.7 0.0
30/02:30am - - - - - N 32 39 17 21 1001.3 1001.3 0.0
30/02:00am - - - - - N 39 44 21 24 1001.7 1001.7 0.0
30/01:30am - - - - - N 37 46 20 25 1002.0 1002.0 0.0
30/01:00am - - - - - N 30 35 16 19 1002.5 1002.5 0.0
30/12:30am - - - - - N 22 28 12 15 1003.0 1003.0 0.0
30/12:00am - - - - - NNW 11 15 6 8 1003.3 1003.3 0.0
 
Date/Time
EST
Temp
°C
App
Temp
°C
Dew
Point
Rel
Hum
%
Delta-T
°C
Wind Press
QNH
hPa
Press
MSL
hPa
Rain
since 9 am
mm
Dir
 
Spd
km/h
Gust
km/h
Spd
kts
Gust
kts
29/11:30pm - - - - - N 15 20 8 11 1003.5 1003.5 0.0
29/11:00pm - - - - - N 20 26 11 14 1003.6 1003.6 0.0
29/10:30pm - - - - - NNW 26 33 14 18 1003.6 1003.6 0.0
29/10:00pm - - - - - NNW 24 32 13 17 1003.9 1003.9 0.0
29/09:30pm - - - - - NNW 30 33 16 18 1004.0 1004.0 0.0
29/09:00pm - - - - - NNW 32 39 17 21 1003.5 1003.5 0.0
29/08:30pm - - - - - N 33 39 18 21 1003.5 1003.5 0.0
29/08:00pm - - - - - NNW 33 43 18 23 1003.5 1003.5 0.0
29/07:30pm - - - - - NNW 35 44 19 24 1003.3 1003.3 0.0
29/07:00pm - - - - - N 32 37 17 20 1003.1 1003.1 0.0
29/06:30pm - - - - - NNW 41 48 22 26 1002.5 1002.5 0.0

Other Formats:

Comma delimited format used in spreadsheet applications
http://www.bom.gov.au/fwo/IDT60801/IDT60801.95988.axf

JavaScript Object Notation format (JSON) in row-major order
http://www.bom.gov.au/fwo/IDT60801/IDT60801.95988.json